sensor_id;sensor_type;location;lat;lon;timestamp;P1;durP1;ratioP1;P2;durP2;ratioP2
38479;SDS011;62333;51.980;5.934;2023-02-11T00:01:27;18.83;;;6.80;;
38479;SDS011;62333;51.980;5.934;2023-02-11T00:03:54;14.18;;;6.40;;
38479;SDS011;62333;51.980;5.934;2023-02-11T00:06:21;11.48;;;6.60;;
38479;SDS011;62333;51.980;5.934;2023-02-11T00:08:47;16.60;;;7.30;;
38479;SDS011;62333;51.980;5.934;2023-02-11T00:11:14;15.23;;;7.80;;
38479;SDS011;62333;51.980;5.934;2023-02-11T00:13:41;17.05;;;6.47;;
38479;SDS011;62333;51.980;5.934;2023-02-11T00:16:09;13.98;;;7.35;;
38479;SDS011;62333;51.980;5.934;2023-02-11T00:18:36;19.48;;;9.68;;
38479;SDS011;62333;51.980;5.934;2023-02-11T00:21:06;13.50;;;6.35;;
38479;SDS011;62333;51.980;5.934;2023-02-11T00:23:36;11.02;;;5.80;;
38479;SDS011;62333;51.980;5.934;2023-02-11T00:26:03;12.35;;;5.43;;
38479;SDS011;62333;51.980;5.934;2023-02-11T00:28:35;11.05;;;4.30;;
38479;SDS011;62333;51.980;5.934;2023-02-11T00:31:00;15.10;;;7.68;;
38479;SDS011;62333;51.980;5.934;2023-02-11T00:33:26;13.18;;;5.95;;
38479;SDS011;62333;51.980;5.934;2023-02-11T00:35:52;18.30;;;5.80;;
38479;SDS011;62333;51.980;5.934;2023-02-11T00:38:17;9.75;;;4.22;;
38479;SDS011;62333;51.980;5.934;2023-02-11T00:40:44;13.10;;;3.88;;
38479;SDS011;62333;51.980;5.934;2023-02-11T00:43:09;11.57;;;4.03;;
38479;SDS011;62333;51.980;5.934;2023-02-11T00:45:35;9.50;;;4.20;;
38479;SDS011;62333;51.980;5.934;2023-02-11T00:48:01;13.00;;;3.60;;
38479;SDS011;62333;51.980;5.934;2023-02-11T00:50:27;8.35;;;3.50;;
38479;SDS011;62333;51.980;5.934;2023-02-11T00:52:52;11.43;;;3.67;;
38479;SDS011;62333;51.980;5.934;2023-02-11T00:55:18;17.42;;;6.47;;
38479;SDS011;62333;51.980;5.934;2023-02-11T00:57:44;12.40;;;4.72;;
38479;SDS011;62333;51.980;5.934;2023-02-11T01:00:10;8.77;;;3.88;;
38479;SDS011;62333;51.980;5.934;2023-02-11T01:02:38;17.30;;;3.92;;
38479;SDS011;62333;51.980;5.934;2023-02-11T01:05:04;12.45;;;4.55;;
38479;SDS011;62333;51.980;5.934;2023-02-11T01:07:30;14.20;;;4.80;;
38479;SDS011;62333;51.980;5.934;2023-02-11T01:09:56;12.40;;;3.75;;
38479;SDS011;62333;51.980;5.934;2023-02-11T01:12:22;10.80;;;4.78;;
38479;SDS011;62333;51.980;5.934;2023-02-11T01:14:47;9.00;;;4.07;;
38479;SDS011;62333;51.980;5.934;2023-02-11T01:17:13;16.02;;;5.38;;
38479;SDS011;62333;51.980;5.934;2023-02-11T01:19:39;14.65;;;3.70;;
38479;SDS011;62333;51.980;5.934;2023-02-11T01:22:04;11.57;;;4.78;;
38479;SDS011;62333;51.980;5.934;2023-02-11T01:24:30;16.95;;;5.32;;
38479;SDS011;62333;51.980;5.934;2023-02-11T01:26:56;8.90;;;3.60;;
38479;SDS011;62333;51.980;5.934;2023-02-11T01:29:22;10.90;;;3.67;;
38479;SDS011;62333;51.980;5.934;2023-02-11T01:31:48;14.30;;;4.07;;
38479;SDS011;62333;51.980;5.934;2023-02-11T01:34:14;14.27;;;4.45;;
38479;SDS011;62333;51.980;5.934;2023-02-11T01:36:40;17.63;;;4.50;;
38479;SDS011;62333;51.980;5.934;2023-02-11T01:39:06;9.25;;;4.50;;
38479;SDS011;62333;51.980;5.934;2023-02-11T01:41:35;12.93;;;4.65;;
38479;SDS011;62333;51.980;5.934;2023-02-11T01:46:46;17.33;;;5.63;;
38479;SDS011;62333;51.980;5.934;2023-02-11T01:49:14;13.65;;;3.85;;
38479;SDS011;62333;51.980;5.934;2023-02-11T01:51:43;9.75;;;4.57;;
38479;SDS011;62333;51.980;5.934;2023-02-11T01:54:14;10.90;;;4.05;;
38479;SDS011;62333;51.980;5.934;2023-02-11T01:57:02;15.73;;;3.70;;
38479;SDS011;62333;51.980;5.934;2023-02-11T01:59:56;14.02;;;4.40;;
38479;SDS011;62333;51.980;5.934;2023-02-11T02:02:33;10.20;;;2.15;;
38479;SDS011;62333;51.980;5.934;2023-02-11T02:07:41;13.10;;;5.13;;
38479;SDS011;62333;51.980;5.934;2023-02-11T02:10:24;15.13;;;4.28;;
38479;SDS011;62333;51.980;5.934;2023-02-11T02:12:52;13.30;;;4.07;;
38479;SDS011;62333;51.980;5.934;2023-02-11T02:15:22;12.40;;;5.22;;
38479;SDS011;62333;51.980;5.934;2023-02-11T02:17:58;14.13;;;4.53;;
38479;SDS011;62333;51.980;5.934;2023-02-11T02:34:17;14.80;;;6.35;;
38479;SDS011;62333;51.980;5.934;2023-02-11T02:39:36;13.00;;;3.65;;
38479;SDS011;62333;51.980;5.934;2023-02-11T02:42:03;14.25;;;3.75;;
38479;SDS011;62333;51.980;5.934;2023-02-11T02:44:30;12.43;;;3.53;;
38479;SDS011;62333;51.980;5.934;2023-02-11T02:46:56;13.45;;;2.80;;
38479;SDS011;62333;51.980;5.934;2023-02-11T02:49:22;15.38;;;4.78;;
38479;SDS011;62333;51.980;5.934;2023-02-11T02:54:33;10.23;;;4.03;;
38479;SDS011;62333;51.980;5.934;2023-02-11T03:02:14;13.30;;;4.45;;
38479;SDS011;62333;51.980;5.934;2023-02-11T03:05:28;10.32;;;4.05;;
38479;SDS011;62333;51.980;5.934;2023-02-11T03:11:02;20.17;;;5.88;;
38479;SDS011;62333;51.980;5.934;2023-02-11T03:13:23;9.65;;;4.18;;
38479;SDS011;62333;51.980;5.934;2023-02-11T03:15:52;16.73;;;4.47;;
38479;SDS011;62333;51.980;5.934;2023-02-11T03:18:21;13.05;;;4.90;;
38479;SDS011;62333;51.980;5.934;2023-02-11T03:20:51;13.75;;;5.18;;
38479;SDS011;62333;51.980;5.934;2023-02-11T03:26:31;12.73;;;4.32;;
38479;SDS011;62333;51.980;5.934;2023-02-11T03:28:54;17.48;;;4.70;;
38479;SDS011;62333;51.980;5.934;2023-02-11T03:31:50;17.55;;;5.40;;
38479;SDS011;62333;51.980;5.934;2023-02-11T03:37:02;17.50;;;5.68;;
38479;SDS011;62333;51.980;5.934;2023-02-11T03:39:35;9.70;;;3.45;;
38479;SDS011;62333;51.980;5.934;2023-02-11T03:42:03;13.02;;;5.15;;
38479;SDS011;62333;51.980;5.934;2023-02-11T03:44:34;12.60;;;5.65;;
38479;SDS011;62333;51.980;5.934;2023-02-11T03:47:04;12.80;;;5.95;;
38479;SDS011;62333;51.980;5.934;2023-02-11T03:49:34;16.10;;;4.93;;
38479;SDS011;62333;51.980;5.934;2023-02-11T03:52:02;10.25;;;5.05;;
38479;SDS011;62333;51.980;5.934;2023-02-11T03:54:30;11.95;;;4.40;;
38479;SDS011;62333;51.980;5.934;2023-02-11T03:56:57;15.10;;;5.50;;
38479;SDS011;62333;51.980;5.934;2023-02-11T03:59:24;10.50;;;4.43;;
38479;SDS011;62333;51.980;5.934;2023-02-11T04:01:50;16.38;;;4.78;;
38479;SDS011;62333;51.980;5.934;2023-02-11T04:04:16;16.55;;;4.63;;
38479;SDS011;62333;51.980;5.934;2023-02-11T04:06:42;8.25;;;3.67;;
38479;SDS011;62333;51.980;5.934;2023-02-11T04:09:09;12.70;;;3.97;;
38479;SDS011;62333;51.980;5.934;2023-02-11T04:11:35;12.10;;;4.07;;
38479;SDS011;62333;51.980;5.934;2023-02-11T04:14:01;12.18;;;3.47;;
38479;SDS011;62333;51.980;5.934;2023-02-11T04:16:27;10.60;;;3.58;;
38479;SDS011;62333;51.980;5.934;2023-02-11T04:18:54;12.65;;;4.72;;
38479;SDS011;62333;51.980;5.934;2023-02-11T04:21:20;13.18;;;5.63;;
38479;SDS011;62333;51.980;5.934;2023-02-11T04:23:46;12.10;;;5.82;;
38479;SDS011;62333;51.980;5.934;2023-02-11T04:26:12;18.35;;;7.22;;
38479;SDS011;62333;51.980;5.934;2023-02-11T04:28:38;15.25;;;6.72;;
38479;SDS011;62333;51.980;5.934;2023-02-11T04:31:04;16.15;;;5.72;;
38479;SDS011;62333;51.980;5.934;2023-02-11T04:33:29;14.05;;;5.28;;
38479;SDS011;62333;51.980;5.934;2023-02-11T04:35:55;20.23;;;5.90;;
38479;SDS011;62333;51.980;5.934;2023-02-11T04:38:21;12.57;;;4.97;;
38479;SDS011;62333;51.980;5.934;2023-02-11T04:40:48;10.10;;;4.95;;
38479;SDS011;62333;51.980;5.934;2023-02-11T04:43:14;20.00;;;7.28;;
38479;SDS011;62333;51.980;5.934;2023-02-11T04:45:39;13.88;;;5.93;;
38479;SDS011;62333;51.980;5.934;2023-02-11T04:48:05;11.50;;;5.00;;
38479;SDS011;62333;51.980;5.934;2023-02-11T04:50:31;15.52;;;7.50;;
38479;SDS011;62333;51.980;5.934;2023-02-11T04:52:56;16.20;;;6.53;;
38479;SDS011;62333;51.980;5.934;2023-02-11T04:55:22;16.35;;;5.65;;
38479;SDS011;62333;51.980;5.934;2023-02-11T04:57:48;15.40;;;6.70;;
38479;SDS011;62333;51.980;5.934;2023-02-11T05:00:14;13.50;;;6.60;;
38479;SDS011;62333;51.980;5.934;2023-02-11T05:02:40;17.08;;;5.63;;
38479;SDS011;62333;51.980;5.934;2023-02-11T05:05:06;12.98;;;5.50;;
38479;SDS011;62333;51.980;5.934;2023-02-11T05:07:31;14.60;;;6.85;;
38479;SDS011;62333;51.980;5.934;2023-02-11T05:09:57;11.75;;;5.55;;
38479;SDS011;62333;51.980;5.934;2023-02-11T05:12:23;18.27;;;7.07;;
38479;SDS011;62333;51.980;5.934;2023-02-11T05:14:49;21.38;;;8.15;;
38479;SDS011;62333;51.980;5.934;2023-02-11T05:17:14;12.35;;;6.50;;
38479;SDS011;62333;51.980;5.934;2023-02-11T05:19:40;15.75;;;6.18;;
38479;SDS011;62333;51.980;5.934;2023-02-11T05:22:06;15.02;;;7.47;;
38479;SDS011;62333;51.980;5.934;2023-02-11T05:24:32;12.00;;;6.20;;
38479;SDS011;62333;51.980;5.934;2023-02-11T05:26:59;15.82;;;7.53;;
38479;SDS011;62333;51.980;5.934;2023-02-11T05:29:25;17.88;;;9.90;;
38479;SDS011;62333;51.980;5.934;2023-02-11T05:31:51;13.73;;;5.70;;
38479;SDS011;62333;51.980;5.934;2023-02-11T05:34:17;13.32;;;6.50;;
38479;SDS011;62333;51.980;5.934;2023-02-11T05:36:42;12.40;;;6.43;;
38479;SDS011;62333;51.980;5.934;2023-02-11T05:39:08;14.77;;;5.47;;
38479;SDS011;62333;51.980;5.934;2023-02-11T05:41:34;20.85;;;8.60;;
38479;SDS011;62333;51.980;5.934;2023-02-11T05:43:59;14.07;;;5.50;;
38479;SDS011;62333;51.980;5.934;2023-02-11T05:46:25;15.15;;;6.82;;
38479;SDS011;62333;51.980;5.934;2023-02-11T05:48:51;16.58;;;6.65;;
38479;SDS011;62333;51.980;5.934;2023-02-11T05:51:17;14.93;;;7.78;;
38479;SDS011;62333;51.980;5.934;2023-02-11T05:53:42;18.90;;;5.55;;
38479;SDS011;62333;51.980;5.934;2023-02-11T05:56:08;16.92;;;8.57;;
38479;SDS011;62333;51.980;5.934;2023-02-11T05:58:34;16.90;;;7.38;;
38479;SDS011;62333;51.980;5.934;2023-02-11T06:01:00;11.82;;;7.38;;
38479;SDS011;62333;51.980;5.934;2023-02-11T06:03:25;16.90;;;9.48;;
38479;SDS011;62333;51.980;5.934;2023-02-11T06:05:51;14.82;;;7.35;;
38479;SDS011;62333;51.980;5.934;2023-02-11T06:08:17;20.25;;;9.05;;
38479;SDS011;62333;51.980;5.934;2023-02-11T06:10:45;16.73;;;7.43;;
38479;SDS011;62333;51.980;5.934;2023-02-11T06:13:11;18.75;;;8.85;;
38479;SDS011;62333;51.980;5.934;2023-02-11T06:15:37;18.80;;;8.43;;
38479;SDS011;62333;51.980;5.934;2023-02-11T06:18:03;17.23;;;8.82;;
38479;SDS011;62333;51.980;5.934;2023-02-11T06:20:29;17.05;;;7.68;;
38479;SDS011;62333;51.980;5.934;2023-02-11T06:22:56;14.38;;;7.78;;
38479;SDS011;62333;51.980;5.934;2023-02-11T06:25:21;13.75;;;7.10;;
38479;SDS011;62333;51.980;5.934;2023-02-11T06:27:47;18.30;;;9.68;;
38479;SDS011;62333;51.980;5.934;2023-02-11T06:30:13;19.35;;;11.02;;
38479;SDS011;62333;51.980;5.934;2023-02-11T06:32:39;17.35;;;9.02;;
38479;SDS011;62333;51.980;5.934;2023-02-11T06:35:04;27.27;;;12.23;;
38479;SDS011;62333;51.980;5.934;2023-02-11T06:37:30;23.65;;;10.52;;
38479;SDS011;62333;51.980;5.934;2023-02-11T06:39:58;20.38;;;12.18;;
38479;SDS011;62333;51.980;5.934;2023-02-11T06:42:24;18.88;;;10.65;;
38479;SDS011;62333;51.980;5.934;2023-02-11T06:44:50;21.67;;;10.93;;
38479;SDS011;62333;51.980;5.934;2023-02-11T06:47:15;21.08;;;9.88;;
38479;SDS011;62333;51.980;5.934;2023-02-11T06:49:41;33.75;;;10.40;;
38479;SDS011;62333;51.980;5.934;2023-02-11T06:52:06;20.42;;;11.60;;
38479;SDS011;62333;51.980;5.934;2023-02-11T06:54:32;16.48;;;8.70;;
38479;SDS011;62333;51.980;5.934;2023-02-11T06:56:58;20.25;;;10.00;;
38479;SDS011;62333;51.980;5.934;2023-02-11T06:59:23;20.42;;;11.57;;
38479;SDS011;62333;51.980;5.934;2023-02-11T07:01:49;15.15;;;8.65;;
38479;SDS011;62333;51.980;5.934;2023-02-11T07:04:15;19.98;;;10.60;;
38479;SDS011;62333;51.980;5.934;2023-02-11T07:06:40;24.02;;;10.50;;
38479;SDS011;62333;51.980;5.934;2023-02-11T07:09:06;21.20;;;11.57;;
38479;SDS011;62333;51.980;5.934;2023-02-11T07:11:32;22.10;;;11.82;;
38479;SDS011;62333;51.980;5.934;2023-02-11T07:13:59;22.73;;;11.50;;
38479;SDS011;62333;51.980;5.934;2023-02-11T07:16:27;24.10;;;11.63;;
38479;SDS011;62333;51.980;5.934;2023-02-11T07:18:53;23.70;;;12.32;;
38479;SDS011;62333;51.980;5.934;2023-02-11T07:21:19;30.20;;;12.48;;
38479;SDS011;62333;51.980;5.934;2023-02-11T07:23:46;25.48;;;13.10;;
38479;SDS011;62333;51.980;5.934;2023-02-11T07:26:13;28.20;;;12.95;;
38479;SDS011;62333;51.980;5.934;2023-02-11T07:28:41;25.17;;;13.98;;
38479;SDS011;62333;51.980;5.934;2023-02-11T07:31:08;37.13;;;16.73;;
38479;SDS011;62333;51.980;5.934;2023-02-11T07:33:35;25.33;;;13.98;;
38479;SDS011;62333;51.980;5.934;2023-02-11T07:36:02;33.15;;;14.45;;
38479;SDS011;62333;51.980;5.934;2023-02-11T07:38:30;28.65;;;14.40;;
38479;SDS011;62333;51.980;5.934;2023-02-11T07:41:00;25.08;;;13.02;;
38479;SDS011;62333;51.980;5.934;2023-02-11T07:43:27;25.20;;;13.80;;
38479;SDS011;62333;51.980;5.934;2023-02-11T07:45:54;28.35;;;12.93;;
38479;SDS011;62333;51.980;5.934;2023-02-11T07:48:20;23.23;;;13.13;;
38479;SDS011;62333;51.980;5.934;2023-02-11T07:50:45;29.67;;;15.20;;
38479;SDS011;62333;51.980;5.934;2023-02-11T07:53:11;27.30;;;12.20;;
38479;SDS011;62333;51.980;5.934;2023-02-11T07:55:37;31.30;;;15.13;;
38479;SDS011;62333;51.980;5.934;2023-02-11T07:58:02;32.38;;;17.13;;
38479;SDS011;62333;51.980;5.934;2023-02-11T08:00:28;24.15;;;14.05;;
38479;SDS011;62333;51.980;5.934;2023-02-11T08:02:55;34.33;;;16.52;;
38479;SDS011;62333;51.980;5.934;2023-02-11T08:05:21;28.10;;;16.50;;
38479;SDS011;62333;51.980;5.934;2023-02-11T08:07:49;28.42;;;15.32;;
38479;SDS011;62333;51.980;5.934;2023-02-11T08:10:19;29.42;;;14.55;;
38479;SDS011;62333;51.980;5.934;2023-02-11T08:12:45;30.02;;;15.05;;
38479;SDS011;62333;51.980;5.934;2023-02-11T08:15:11;31.80;;;17.98;;
38479;SDS011;62333;51.980;5.934;2023-02-11T08:17:37;35.20;;;18.48;;
38479;SDS011;62333;51.980;5.934;2023-02-11T08:20:03;31.35;;;18.38;;
38479;SDS011;62333;51.980;5.934;2023-02-11T08:22:33;31.00;;;16.50;;
38479;SDS011;62333;51.980;5.934;2023-02-11T08:24:59;28.75;;;15.80;;
38479;SDS011;62333;51.980;5.934;2023-02-11T08:27:25;26.85;;;15.20;;
38479;SDS011;62333;51.980;5.934;2023-02-11T08:29:52;33.42;;;18.40;;
38479;SDS011;62333;51.980;5.934;2023-02-11T08:32:18;29.35;;;17.38;;
38479;SDS011;62333;51.980;5.934;2023-02-11T08:34:44;44.67;;;20.60;;
38479;SDS011;62333;51.980;5.934;2023-02-11T08:37:09;33.63;;;20.65;;
38479;SDS011;62333;51.980;5.934;2023-02-11T08:39:35;31.95;;;19.20;;
38479;SDS011;62333;51.980;5.934;2023-02-11T08:42:01;34.03;;;18.70;;
38479;SDS011;62333;51.980;5.934;2023-02-11T08:44:27;34.53;;;21.38;;
38479;SDS011;62333;51.980;5.934;2023-02-11T08:46:54;28.92;;;17.92;;
38479;SDS011;62333;51.980;5.934;2023-02-11T08:49:20;27.38;;;16.83;;
38479;SDS011;62333;51.980;5.934;2023-02-11T08:51:46;27.65;;;16.60;;
38479;SDS011;62333;51.980;5.934;2023-02-11T08:54:13;31.23;;;18.30;;
38479;SDS011;62333;51.980;5.934;2023-02-11T08:56:39;35.72;;;18.50;;
38479;SDS011;62333;51.980;5.934;2023-02-11T08:59:05;28.70;;;16.92;;
38479;SDS011;62333;51.980;5.934;2023-02-11T09:01:31;33.70;;;19.35;;
38479;SDS011;62333;51.980;5.934;2023-02-11T09:03:57;26.92;;;16.75;;
38479;SDS011;62333;51.980;5.934;2023-02-11T09:06:23;30.80;;;19.05;;
38479;SDS011;62333;51.980;5.934;2023-02-11T09:08:51;34.33;;;19.25;;
38479;SDS011;62333;51.980;5.934;2023-02-11T09:11:19;29.67;;;18.50;;
38479;SDS011;62333;51.980;5.934;2023-02-11T09:13:46;26.90;;;16.92;;
38479;SDS011;62333;51.980;5.934;2023-02-11T09:16:16;29.17;;;16.77;;
38479;SDS011;62333;51.980;5.934;2023-02-11T09:18:44;37.75;;;19.73;;
38479;SDS011;62333;51.980;5.934;2023-02-11T09:21:11;35.45;;;18.40;;
38479;SDS011;62333;51.980;5.934;2023-02-11T09:23:38;38.92;;;20.08;;
38479;SDS011;62333;51.980;5.934;2023-02-11T09:28:32;33.15;;;20.02;;
38479;SDS011;62333;51.980;5.934;2023-02-11T09:30:57;33.30;;;19.83;;
38479;SDS011;62333;51.980;5.934;2023-02-11T09:33:23;36.00;;;21.48;;
38479;SDS011;62333;51.980;5.934;2023-02-11T09:35:49;33.00;;;21.63;;
38479;SDS011;62333;51.980;5.934;2023-02-11T09:38:14;32.65;;;20.48;;
38479;SDS011;62333;51.980;5.934;2023-02-11T09:40:41;47.17;;;23.88;;
38479;SDS011;62333;51.980;5.934;2023-02-11T09:43:11;33.25;;;21.92;;
38479;SDS011;62333;51.980;5.934;2023-02-11T09:45:41;31.48;;;18.55;;
38479;SDS011;62333;51.980;5.934;2023-02-11T09:48:14;33.88;;;18.58;;
38479;SDS011;62333;51.980;5.934;2023-02-11T09:50:49;38.03;;;21.63;;
38479;SDS011;62333;51.980;5.934;2023-02-11T09:56:01;39.38;;;23.92;;
38479;SDS011;62333;51.980;5.934;2023-02-11T09:58:34;38.40;;;23.73;;
38479;SDS011;62333;51.980;5.934;2023-02-11T10:20:28;36.17;;;23.23;;
38479;SDS011;62333;51.980;5.934;2023-02-11T10:22:59;31.25;;;20.70;;
38479;SDS011;62333;51.980;5.934;2023-02-11T10:25:33;34.90;;;20.23;;
38479;SDS011;62333;51.980;5.934;2023-02-11T10:28:09;26.90;;;16.40;;
38479;SDS011;62333;51.980;5.934;2023-02-11T10:36:29;35.83;;;20.10;;
38479;SDS011;62333;51.980;5.934;2023-02-11T10:38:58;36.10;;;20.60;;
38479;SDS011;62333;51.980;5.934;2023-02-11T10:41:27;28.25;;;16.85;;
38479;SDS011;62333;51.980;5.934;2023-02-11T10:43:58;33.05;;;19.77;;
38479;SDS011;62333;51.980;5.934;2023-02-11T10:46:27;36.70;;;22.02;;
38479;SDS011;62333;51.980;5.934;2023-02-11T10:48:56;30.67;;;19.45;;
38479;SDS011;62333;51.980;5.934;2023-02-11T10:53:50;27.15;;;19.60;;
38479;SDS011;62333;51.980;5.934;2023-02-11T10:56:44;30.95;;;21.15;;
38479;SDS011;62333;51.980;5.934;2023-02-11T11:02:04;28.42;;;17.40;;
38479;SDS011;62333;51.980;5.934;2023-02-11T11:04:48;32.75;;;19.83;;
38479;SDS011;62333;51.980;5.934;2023-02-11T11:07:21;35.42;;;23.00;;
38479;SDS011;62333;51.980;5.934;2023-02-11T11:09:53;33.13;;;21.15;;
38479;SDS011;62333;51.980;5.934;2023-02-11T11:17:34;30.58;;;18.85;;
38479;SDS011;62333;51.980;5.934;2023-02-11T11:20:12;25.08;;;17.58;;
38479;SDS011;62333;51.980;5.934;2023-02-11T11:22:47;30.02;;;18.05;;
38479;SDS011;62333;51.980;5.934;2023-02-11T11:27:51;27.70;;;17.88;;
38479;SDS011;62333;51.980;5.934;2023-02-11T11:30:20;27.40;;;18.05;;
38479;SDS011;62333;51.980;5.934;2023-02-11T11:32:56;25.35;;;15.95;;
38479;SDS011;62333;51.980;5.934;2023-02-11T11:35:24;33.60;;;20.05;;
38479;SDS011;62333;51.980;5.934;2023-02-11T11:37:57;29.50;;;19.38;;
38479;SDS011;62333;51.980;5.934;2023-02-11T11:40:29;23.38;;;16.90;;
38479;SDS011;62333;51.980;5.934;2023-02-11T11:45:31;20.67;;;15.13;;
38479;SDS011;62333;51.980;5.934;2023-02-11T11:50:46;22.52;;;13.30;;
38479;SDS011;62333;51.980;5.934;2023-02-11T11:56:02;24.95;;;16.48;;
38479;SDS011;62333;51.980;5.934;2023-02-11T11:58:31;24.30;;;15.60;;
38479;SDS011;62333;51.980;5.934;2023-02-11T12:01:01;22.83;;;15.20;;
38479;SDS011;62333;51.980;5.934;2023-02-11T12:03:58;23.63;;;14.18;;
38479;SDS011;62333;51.980;5.934;2023-02-11T12:12:45;19.83;;;12.25;;
38479;SDS011;62333;51.980;5.934;2023-02-11T12:27:05;17.23;;;8.65;;
38479;SDS011;62333;51.980;5.934;2023-02-11T12:29:55;15.35;;;9.35;;
38479;SDS011;62333;51.980;5.934;2023-02-11T12:44:08;15.23;;;7.80;;
38479;SDS011;62333;51.980;5.934;2023-02-11T12:46:49;11.57;;;7.15;;
38479;SDS011;62333;51.980;5.934;2023-02-11T12:50:08;11.38;;;7.82;;
38479;SDS011;62333;51.980;5.934;2023-02-11T12:57:45;13.65;;;7.60;;
38479;SDS011;62333;51.980;5.934;2023-02-11T13:00:24;17.00;;;8.80;;
38479;SDS011;62333;51.980;5.934;2023-02-11T13:08:19;16.23;;;10.90;;
38479;SDS011;62333;51.980;5.934;2023-02-11T13:10:53;13.10;;;8.13;;
38479;SDS011;62333;51.980;5.934;2023-02-11T13:18:30;12.45;;;7.90;;
38479;SDS011;62333;51.980;5.934;2023-02-11T13:26:29;10.40;;;6.68;;
38479;SDS011;62333;51.980;5.934;2023-02-11T13:32:16;11.38;;;6.57;;
38479;SDS011;62333;51.980;5.934;2023-02-11T13:37:24;15.93;;;7.13;;
38479;SDS011;62333;51.980;5.934;2023-02-11T13:39:59;12.38;;;6.30;;
38479;SDS011;62333;51.980;5.934;2023-02-11T13:42:25;14.23;;;7.65;;
38479;SDS011;62333;51.980;5.934;2023-02-11T13:44:51;11.95;;;6.25;;
38479;SDS011;62333;51.980;5.934;2023-02-11T13:47:29;12.70;;;6.35;;
38479;SDS011;62333;51.980;5.934;2023-02-11T13:49:57;10.20;;;6.32;;
38479;SDS011;62333;51.980;5.934;2023-02-11T13:52:33;8.15;;;5.55;;
38479;SDS011;62333;51.980;5.934;2023-02-11T13:55:20;9.93;;;6.32;;
38479;SDS011;62333;51.980;5.934;2023-02-11T14:03:23;10.30;;;6.13;;
38479;SDS011;62333;51.980;5.934;2023-02-11T14:14:24;8.52;;;6.35;;
38479;SDS011;62333;51.980;5.934;2023-02-11T14:35:31;10.52;;;6.15;;
38479;SDS011;62333;51.980;5.934;2023-02-11T14:41:07;13.13;;;7.30;;
38479;SDS011;62333;51.980;5.934;2023-02-11T14:43:41;9.27;;;5.88;;
38479;SDS011;62333;51.980;5.934;2023-02-11T14:46:11;9.75;;;6.68;;
38479;SDS011;62333;51.980;5.934;2023-02-11T14:48:42;9.70;;;5.72;;
38479;SDS011;62333;51.980;5.934;2023-02-11T14:51:23;9.13;;;7.07;;
38479;SDS011;62333;51.980;5.934;2023-02-11T14:54:00;10.15;;;6.63;;
38479;SDS011;62333;51.980;5.934;2023-02-11T14:56:34;8.38;;;5.82;;
38479;SDS011;62333;51.980;5.934;2023-02-11T14:59:01;9.00;;;6.00;;
38479;SDS011;62333;51.980;5.934;2023-02-11T15:01:33;10.48;;;6.25;;
38479;SDS011;62333;51.980;5.934;2023-02-11T15:04:05;7.82;;;5.80;;
38479;SDS011;62333;51.980;5.934;2023-02-11T15:06:46;11.55;;;5.53;;
38479;SDS011;62333;51.980;5.934;2023-02-11T15:09:16;11.18;;;7.18;;
38479;SDS011;62333;51.980;5.934;2023-02-11T15:11:48;11.02;;;7.20;;
38479;SDS011;62333;51.980;5.934;2023-02-11T15:16:43;7.72;;;5.68;;
38479;SDS011;62333;51.980;5.934;2023-02-11T15:19:21;12.25;;;7.43;;
38479;SDS011;62333;51.980;5.934;2023-02-11T15:21:52;8.02;;;5.70;;
38479;SDS011;62333;51.980;5.934;2023-02-11T15:24:37;10.10;;;6.10;;
38479;SDS011;62333;51.980;5.934;2023-02-11T15:29:37;9.50;;;6.18;;
38479;SDS011;62333;51.980;5.934;2023-02-11T15:32:09;7.70;;;5.32;;
38479;SDS011;62333;51.980;5.934;2023-02-11T15:34:38;9.38;;;4.65;;
38479;SDS011;62333;51.980;5.934;2023-02-11T15:37:05;8.05;;;4.50;;
38479;SDS011;62333;51.980;5.934;2023-02-11T15:39:38;9.98;;;5.38;;
38479;SDS011;62333;51.980;5.934;2023-02-11T15:45:10;6.35;;;3.83;;
38479;SDS011;62333;51.980;5.934;2023-02-11T15:48:08;8.43;;;6.22;;
38479;SDS011;62333;51.980;5.934;2023-02-11T15:50:37;12.85;;;6.18;;
38479;SDS011;62333;51.980;5.934;2023-02-11T15:55:49;8.35;;;5.05;;
38479;SDS011;62333;51.980;5.934;2023-02-11T15:58:17;7.82;;;4.97;;
38479;SDS011;62333;51.980;5.934;2023-02-11T16:00:48;7.00;;;5.05;;
38479;SDS011;62333;51.980;5.934;2023-02-11T16:03:19;10.10;;;5.18;;
38479;SDS011;62333;51.980;5.934;2023-02-11T16:05:46;8.77;;;4.38;;
38479;SDS011;62333;51.980;5.934;2023-02-11T16:11:32;9.02;;;5.70;;
38479;SDS011;62333;51.980;5.934;2023-02-11T16:13:49;5.70;;;3.28;;
38479;SDS011;62333;51.980;5.934;2023-02-11T16:16:18;6.65;;;3.72;;
38479;SDS011;62333;51.980;5.934;2023-02-11T16:18:49;8.57;;;4.32;;
38479;SDS011;62333;51.980;5.934;2023-02-11T16:21:17;10.27;;;4.78;;
38479;SDS011;62333;51.980;5.934;2023-02-11T16:23:51;7.65;;;5.07;;
38479;SDS011;62333;51.980;5.934;2023-02-11T16:26:26;9.35;;;5.07;;
38479;SDS011;62333;51.980;5.934;2023-02-11T16:29:14;10.50;;;3.80;;
38479;SDS011;62333;51.980;5.934;2023-02-11T16:31:43;8.18;;;4.60;;
38479;SDS011;62333;51.980;5.934;2023-02-11T16:34:20;5.88;;;3.25;;
38479;SDS011;62333;51.980;5.934;2023-02-11T16:36:48;6.57;;;3.70;;
38479;SDS011;62333;51.980;5.934;2023-02-11T16:39:15;6.85;;;3.53;;
38479;SDS011;62333;51.980;5.934;2023-02-11T16:41:42;5.05;;;2.78;;
38479;SDS011;62333;51.980;5.934;2023-02-11T16:44:08;7.93;;;4.32;;
38479;SDS011;62333;51.980;5.934;2023-02-11T16:46:34;10.20;;;3.95;;
38479;SDS011;62333;51.980;5.934;2023-02-11T16:49:08;9.73;;;3.17;;
38479;SDS011;62333;51.980;5.934;2023-02-11T16:51:39;6.72;;;3.70;;
38479;SDS011;62333;51.980;5.934;2023-02-11T16:54:12;8.65;;;3.75;;
38479;SDS011;62333;51.980;5.934;2023-02-11T16:56:39;6.47;;;3.28;;
38479;SDS011;62333;51.980;5.934;2023-02-11T16:59:05;5.72;;;3.17;;
38479;SDS011;62333;51.980;5.934;2023-02-11T17:01:30;8.80;;;4.53;;
38479;SDS011;62333;51.980;5.934;2023-02-11T17:03:57;7.50;;;3.17;;
38479;SDS011;62333;51.980;5.934;2023-02-11T17:06:23;7.63;;;3.65;;
38479;SDS011;62333;51.980;5.934;2023-02-11T17:08:48;8.18;;;3.33;;
38479;SDS011;62333;51.980;5.934;2023-02-11T17:11:14;9.02;;;5.05;;
38479;SDS011;62333;51.980;5.934;2023-02-11T17:13:41;6.80;;;3.78;;
38479;SDS011;62333;51.980;5.934;2023-02-11T17:16:15;8.15;;;3.75;;
38479;SDS011;62333;51.980;5.934;2023-02-11T17:18:45;8.20;;;3.97;;
38479;SDS011;62333;51.980;5.934;2023-02-11T17:21:12;8.75;;;3.95;;
38479;SDS011;62333;51.980;5.934;2023-02-11T17:23:38;4.78;;;2.85;;
38479;SDS011;62333;51.980;5.934;2023-02-11T17:26:04;6.05;;;3.88;;
38479;SDS011;62333;51.980;5.934;2023-02-11T17:28:30;8.02;;;3.55;;
38479;SDS011;62333;51.980;5.934;2023-02-11T17:30:56;6.53;;;3.00;;
38479;SDS011;62333;51.980;5.934;2023-02-11T17:33:23;9.23;;;3.65;;
38479;SDS011;62333;51.980;5.934;2023-02-11T17:35:48;8.07;;;4.07;;
38479;SDS011;62333;51.980;5.934;2023-02-11T17:38:14;7.18;;;3.92;;
38479;SDS011;62333;51.980;5.934;2023-02-11T17:40:40;5.82;;;3.65;;
38479;SDS011;62333;51.980;5.934;2023-02-11T17:43:06;7.30;;;3.40;;
38479;SDS011;62333;51.980;5.934;2023-02-11T17:45:32;6.75;;;4.38;;
38479;SDS011;62333;51.980;5.934;2023-02-11T17:47:58;7.88;;;3.92;;
38479;SDS011;62333;51.980;5.934;2023-02-11T17:50:23;7.25;;;4.47;;
38479;SDS011;62333;51.980;5.934;2023-02-11T17:52:49;7.45;;;4.07;;
38479;SDS011;62333;51.980;5.934;2023-02-11T17:55:14;6.70;;;4.40;;
38479;SDS011;62333;51.980;5.934;2023-02-11T17:57:40;6.80;;;4.35;;
38479;SDS011;62333;51.980;5.934;2023-02-11T18:00:06;6.85;;;3.42;;